createdAt,value
2023-05-14T00:00:08.527Z,12.89
2023-05-14T00:02:56.122Z,12.87
2023-05-14T00:05:24.188Z,12.86
2023-05-14T00:07:51.663Z,12.86
2023-05-14T00:10:22.264Z,12.85
2023-05-14T00:12:51.777Z,12.84
2023-05-14T00:15:19.975Z,12.83
2023-05-14T00:17:47.514Z,12.82
2023-05-14T00:20:15.145Z,12.81
2023-05-14T00:22:42.708Z,12.80
2023-05-14T00:25:10.582Z,12.80
2023-05-14T00:27:38.240Z,12.80
2023-05-14T00:30:06.937Z,12.79
2023-05-14T00:32:34.589Z,12.81
2023-05-14T00:35:04.411Z,12.81
2023-05-14T00:37:32.213Z,12.81
2023-05-14T00:39:59.880Z,12.82
2023-05-14T00:42:27.793Z,12.82
2023-05-14T00:44:55.400Z,12.81
2023-05-14T00:47:23.142Z,12.81
2023-05-14T00:49:50.742Z,12.81
2023-05-14T00:52:18.744Z,12.80
2023-05-14T00:54:48.093Z,12.80
2023-05-14T00:57:15.734Z,12.79
2023-05-14T00:59:43.265Z,12.77
2023-05-14T01:02:11.389Z,12.75
2023-05-14T01:04:40.154Z,12.71
2023-05-14T01:07:40.406Z,12.70
2023-05-14T01:10:16.020Z,12.69
2023-05-14T01:12:59.479Z,12.67
2023-05-14T01:15:33.609Z,12.65
2023-05-14T01:18:07.829Z,12.62
2023-05-14T01:20:36.548Z,12.60
2023-05-14T01:23:04.109Z,12.57
2023-05-14T01:25:32.449Z,12.53
2023-05-14T01:28:03.028Z,12.50
2023-05-14T01:30:40.199Z,12.46
2023-05-14T01:33:13.857Z,12.43
2023-05-14T01:35:42.012Z,12.40
2023-05-14T01:38:13.888Z,12.38
2023-05-14T01:40:44.570Z,12.36
2023-05-14T01:43:12.624Z,12.37
2023-05-14T01:45:40.623Z,12.37
2023-05-14T01:48:08.535Z,12.36
2023-05-14T01:50:38.807Z,12.35
2023-05-14T01:53:06.611Z,12.34
2023-05-14T01:55:34.045Z,12.31
2023-05-14T01:58:01.627Z,12.28
2023-05-14T02:00:29.259Z,12.28
2023-05-14T02:02:56.836Z,12.27
2023-05-14T02:05:24.519Z,12.26
2023-05-14T02:07:52.161Z,12.25
2023-05-14T02:10:19.786Z,12.22
2023-05-14T02:12:47.489Z,12.19
2023-05-14T02:15:15.064Z,12.17
2023-05-14T02:17:42.748Z,12.15
2023-05-14T02:20:11.156Z,12.13
2023-05-14T02:22:41.169Z,12.13
2023-05-14T02:25:09.595Z,12.12
2023-05-14T02:27:37.159Z,12.11
2023-05-14T02:30:06.144Z,12.09
2023-05-14T02:32:33.753Z,12.06
2023-05-14T02:35:01.575Z,12.04
2023-05-14T02:37:29.238Z,12.02
2023-05-14T02:39:56.744Z,11.99
2023-05-14T02:42:24.316Z,11.97
2023-05-14T02:44:54.936Z,11.95
2023-05-14T02:47:22.619Z,11.93
2023-05-14T02:49:50.356Z,11.92
2023-05-14T02:52:17.914Z,11.90
2023-05-14T02:54:46.596Z,11.88
2023-05-14T02:57:14.117Z,11.85
2023-05-14T02:59:41.741Z,11.82
2023-05-14T03:02:09.628Z,11.80
2023-05-14T03:04:37.725Z,11.78
2023-05-14T03:07:05.539Z,11.77
2023-05-14T03:09:33.111Z,11.77
2023-05-14T03:12:01.521Z,11.79
2023-05-14T03:14:29.271Z,11.80
2023-05-14T03:16:56.772Z,11.82
2023-05-14T03:19:24.530Z,11.83
2023-05-14T03:21:52.060Z,11.84
2023-05-14T03:24:19.522Z,11.84
2023-05-14T03:26:48.151Z,11.85
2023-05-14T03:29:18.256Z,11.86
2023-05-14T03:31:45.914Z,11.86
2023-05-14T03:34:13.549Z,11.87
2023-05-14T03:36:41.143Z,11.89
2023-05-14T03:39:09.650Z,11.91
2023-05-14T03:41:37.717Z,11.92
2023-05-14T03:44:06.380Z,11.95
2023-05-14T03:46:34.268Z,11.97
2023-05-14T03:49:01.964Z,12.00
2023-05-14T03:51:29.681Z,12.05
2023-05-14T03:53:58.321Z,12.10
2023-05-14T03:56:26.294Z,12.15
2023-05-14T03:58:53.763Z,12.20
2023-05-14T04:01:21.423Z,12.25
2023-05-14T04:03:49.131Z,12.31
2023-05-14T04:06:16.769Z,12.35
2023-05-14T04:08:44.400Z,12.41
2023-05-14T04:11:11.914Z,12.46
2023-05-14T04:13:39.435Z,12.52
2023-05-14T04:16:07.101Z,12.59
2023-05-14T04:18:37.095Z,12.66
2023-05-14T04:21:04.933Z,12.75
2023-05-14T04:23:32.521Z,12.84
2023-05-14T04:26:00.590Z,12.93
2023-05-14T04:28:28.058Z,13.04
2023-05-14T04:30:56.946Z,13.13
2023-05-14T04:33:24.539Z,13.20
2023-05-14T04:35:52.823Z,13.29
2023-05-14T04:38:20.397Z,13.37
2023-05-14T04:40:47.883Z,13.45
2023-05-14T04:43:17.959Z,13.54
2023-05-14T04:45:45.664Z,13.63
2023-05-14T04:48:13.160Z,13.71
2023-05-14T04:50:40.763Z,13.80
2023-05-14T04:53:08.233Z,13.87
2023-05-14T04:55:35.758Z,13.96
2023-05-14T04:58:03.326Z,14.06
2023-05-14T05:00:30.834Z,14.16
2023-05-14T05:02:58.839Z,14.27
2023-05-14T05:05:26.661Z,14.38
2023-05-14T05:07:54.476Z,14.49
2023-05-14T05:10:22.233Z,14.60
2023-05-14T05:12:50.314Z,14.71
2023-05-14T05:15:17.917Z,14.83
2023-05-14T05:17:45.900Z,14.94
2023-05-14T05:20:13.892Z,15.05
2023-05-14T05:22:41.430Z,15.17
2023-05-14T05:25:09.443Z,15.28
2023-05-14T05:27:39.415Z,15.41
2023-05-14T05:30:08.371Z,15.53
2023-05-14T05:32:36.687Z,15.65
2023-05-14T05:35:05.016Z,15.77
2023-05-14T05:37:33.105Z,15.88
2023-05-14T05:40:00.767Z,16.01
2023-05-14T05:42:28.348Z,16.14
2023-05-14T05:44:56.293Z,16.25
2023-05-14T05:47:25.564Z,16.36
2023-05-14T05:49:54.048Z,16.49
2023-05-14T05:52:21.711Z,16.64
2023-05-14T05:54:49.292Z,16.77
2023-05-14T05:57:16.785Z,16.89
2023-05-14T05:59:44.492Z,17.03
2023-05-14T06:02:12.103Z,17.16
2023-05-14T06:04:39.761Z,17.30
2023-05-14T06:07:07.251Z,17.44
2023-05-14T06:09:34.737Z,17.56
2023-05-14T06:12:02.237Z,17.70
2023-05-14T06:14:29.793Z,17.84
2023-05-14T06:16:58.702Z,17.97
2023-05-14T06:19:26.431Z,18.10
2023-05-14T06:21:54.058Z,18.25
2023-05-14T06:24:21.686Z,18.38
2023-05-14T06:26:49.311Z,18.52
2023-05-14T06:29:17.047Z,18.65
2023-05-14T06:31:44.586Z,18.78
2023-05-14T06:34:12.241Z,18.90
2023-05-14T06:36:40.236Z,19.00
2023-05-14T06:39:07.730Z,19.11
2023-05-14T06:41:35.374Z,19.21
2023-05-14T06:44:02.921Z,19.30
2023-05-14T06:46:30.586Z,19.40
2023-05-14T06:48:59.515Z,19.53
2023-05-14T06:51:27.244Z,19.66
2023-05-14T06:53:58.847Z,19.76
2023-05-14T06:56:26.471Z,19.87
2023-05-14T06:58:54.052Z,19.98
2023-05-14T07:01:21.659Z,20.06
2023-05-14T07:03:49.233Z,20.14
2023-05-14T07:06:16.859Z,20.22
2023-05-14T07:08:47.319Z,20.32
2023-05-14T07:11:15.282Z,20.42
2023-05-14T07:13:42.960Z,20.54
2023-05-14T07:16:10.506Z,20.65
2023-05-14T07:18:38.086Z,20.75
2023-05-14T07:21:07.424Z,20.86
2023-05-14T07:23:38.473Z,20.95
2023-05-14T07:26:07.956Z,21.05
2023-05-14T07:28:35.829Z,21.14
2023-05-14T07:31:08.714Z,21.24
2023-05-14T07:33:36.465Z,21.34
2023-05-14T07:36:05.018Z,21.42
2023-05-14T07:38:32.798Z,21.51
2023-05-14T07:41:00.503Z,21.58
2023-05-14T07:43:28.161Z,21.68
2023-05-14T07:45:55.860Z,21.79
2023-05-14T07:48:23.626Z,21.87
2023-05-14T07:50:51.861Z,21.97
2023-05-14T07:53:19.533Z,22.04
2023-05-14T07:55:49.152Z,22.11
2023-05-14T07:58:16.673Z,22.19
2023-05-14T08:00:44.297Z,22.25
2023-05-14T08:03:11.959Z,22.35
2023-05-14T08:05:40.130Z,22.44
2023-05-14T08:08:07.717Z,22.53
2023-05-14T08:10:35.304Z,22.60
2023-05-14T08:13:03.682Z,22.67
2023-05-14T08:15:31.388Z,22.72
2023-05-14T08:18:03.304Z,22.80
2023-05-14T08:20:31.132Z,22.89
2023-05-14T08:22:58.685Z,23.00
2023-05-14T08:25:26.252Z,23.09
2023-05-14T08:27:54.220Z,23.21
2023-05-14T08:30:23.292Z,23.37
2023-05-14T08:32:51.342Z,23.51
2023-05-14T08:35:19.158Z,23.58
2023-05-14T08:37:46.757Z,23.63
2023-05-14T08:40:14.306Z,23.70
2023-05-14T08:42:44.709Z,23.80
2023-05-14T08:45:21.813Z,23.87
2023-05-14T08:47:51.023Z,23.92
2023-05-14T08:50:23.598Z,23.98
2023-05-14T08:52:52.856Z,24.01
2023-05-14T08:55:20.918Z,24.05
2023-05-14T08:57:49.086Z,24.08
2023-05-14T09:00:16.739Z,24.15
2023-05-14T09:02:44.949Z,24.32
2023-05-14T09:05:13.213Z,24.52
2023-05-14T09:07:41.306Z,24.72
2023-05-14T09:10:10.048Z,24.88
2023-05-14T09:12:37.753Z,25.01
2023-05-14T09:15:06.581Z,25.08
2023-05-14T09:17:34.804Z,25.10
2023-05-14T09:20:03.069Z,25.21
2023-05-14T09:22:33.436Z,25.36
2023-05-14T09:25:09.750Z,25.52
2023-05-14T09:27:38.381Z,25.61
2023-05-14T09:30:13.377Z,25.71
2023-05-14T09:32:45.903Z,25.89
2023-05-14T09:35:22.172Z,26.11
2023-05-14T09:37:54.650Z,26.34
2023-05-14T09:40:24.621Z,26.42
2023-05-14T09:42:53.359Z,26.49
2023-05-14T09:45:21.017Z,26.62
2023-05-14T09:47:49.687Z,26.77
2023-05-14T09:50:17.501Z,26.99
2023-05-14T09:52:45.028Z,27.18
2023-05-14T09:55:13.448Z,27.46
2023-05-14T09:57:40.985Z,27.69
2023-05-14T10:00:10.154Z,27.88
2023-05-14T10:02:40.556Z,28.05
2023-05-14T10:05:09.742Z,28.17
2023-05-14T10:07:42.657Z,28.39
2023-05-14T10:10:15.223Z,28.72
2023-05-14T10:12:46.238Z,29.03
2023-05-14T10:15:20.968Z,29.26
2023-05-14T10:17:57.109Z,29.28
2023-05-14T10:20:26.645Z,29.36
2023-05-14T10:22:54.374Z,29.36
2023-05-14T10:25:23.035Z,29.53
2023-05-14T10:27:53.434Z,29.85
2023-05-14T10:30:23.437Z,29.87
2023-05-14T10:33:09.461Z,29.89
2023-05-14T10:36:09.147Z,30.21
2023-05-14T10:38:38.277Z,30.36
2023-05-14T10:41:10.369Z,30.53
2023-05-14T10:43:39.781Z,30.32
2023-05-14T10:46:09.063Z,29.83
2023-05-14T10:48:37.910Z,29.62
2023-05-14T10:51:09.319Z,29.36
2023-05-14T10:53:42.414Z,29.22
2023-05-14T10:56:12.085Z,29.53
2023-05-14T10:58:44.633Z,29.94
2023-05-14T11:01:13.647Z,30.28
2023-05-14T11:03:45.400Z,30.21
2023-05-14T11:06:15.852Z,30.00
2023-05-14T11:08:44.845Z,29.66
2023-05-14T11:11:12.628Z,29.64
2023-05-14T11:13:41.260Z,29.90
2023-05-14T11:16:21.705Z,30.26
2023-05-14T11:19:02.294Z,30.42
2023-05-14T11:21:31.668Z,30.61
2023-05-14T11:24:00.808Z,30.89
2023-05-14T11:26:28.415Z,31.29
2023-05-14T11:28:56.365Z,31.33
2023-05-14T11:31:25.340Z,30.95
2023-05-14T11:33:53.821Z,30.46
2023-05-14T11:36:22.226Z,30.23
2023-05-14T11:38:51.328Z,30.56
2023-05-14T11:41:21.290Z,30.88
2023-05-14T11:43:48.941Z,30.80
2023-05-14T11:46:18.453Z,30.41
2023-05-14T11:48:46.152Z,29.85
2023-05-14T11:51:13.727Z,29.27
2023-05-14T11:53:41.373Z,28.75
2023-05-14T11:56:09.946Z,28.31
2023-05-14T11:58:38.051Z,27.86
2023-05-14T12:01:05.647Z,27.58
2023-05-14T12:03:33.683Z,27.43
2023-05-14T12:06:07.205Z,27.28
2023-05-14T12:08:34.714Z,27.16
2023-05-14T12:11:02.174Z,27.13
2023-05-14T12:13:31.328Z,27.14
2023-05-14T12:16:02.044Z,27.48
2023-05-14T12:18:32.270Z,28.25
2023-05-14T12:21:04.697Z,28.70
2023-05-14T12:23:32.919Z,28.91
2023-05-14T12:26:09.362Z,29.19
2023-05-14T12:28:43.329Z,29.34
2023-05-14T12:31:11.858Z,29.58
2023-05-14T12:33:39.388Z,30.16
2023-05-14T12:38:37.636Z,31.58
2023-05-14T12:41:05.190Z,32.46
2023-05-14T12:43:32.663Z,33.19
2023-05-14T12:46:00.204Z,33.85
2023-05-14T12:48:27.762Z,34.66
2023-05-14T12:50:56.026Z,35.46
2023-05-14T12:53:23.952Z,36.29
2023-05-14T12:55:51.618Z,36.81
2023-05-14T12:58:19.076Z,36.94
2023-05-14T13:00:46.646Z,36.89
2023-05-14T13:03:14.212Z,36.74
2023-05-14T13:05:41.964Z,36.67
2023-05-14T13:08:10.165Z,36.77
2023-05-14T13:10:37.641Z,37.00
2023-05-14T13:13:05.218Z,37.25
2023-05-14T13:15:33.652Z,37.50
2023-05-14T13:18:01.159Z,37.56
2023-05-14T13:20:30.865Z,37.96
2023-05-14T13:22:58.336Z,38.18
2023-05-14T13:25:27.450Z,37.72
2023-05-14T13:27:55.131Z,37.10
2023-05-14T13:30:22.631Z,36.40
2023-05-14T13:32:50.438Z,35.87
2023-05-14T13:35:18.194Z,36.05
2023-05-14T13:37:46.823Z,36.33
2023-05-14T13:40:14.472Z,36.19
2023-05-14T13:42:42.072Z,35.91
2023-05-14T13:45:09.915Z,35.38
2023-05-14T13:47:37.487Z,34.70
2023-05-14T13:50:05.672Z,33.95
2023-05-14T13:52:33.218Z,33.20
2023-05-14T13:55:00.741Z,32.58
2023-05-14T13:57:28.282Z,32.69
2023-05-14T13:59:55.905Z,33.14
2023-05-14T14:02:23.456Z,33.66
2023-05-14T14:04:50.986Z,34.29
2023-05-14T14:07:18.547Z,34.73
2023-05-14T14:09:45.995Z,34.63
2023-05-14T14:12:13.555Z,34.63
2023-05-14T14:14:41.134Z,34.94
2023-05-14T14:17:09.004Z,34.72
2023-05-14T14:19:36.625Z,34.21
2023-05-14T14:22:04.832Z,33.81
2023-05-14T14:24:32.325Z,34.22
2023-05-14T14:27:00.898Z,34.89
2023-05-14T14:29:30.994Z,35.75
2023-05-14T14:31:59.311Z,36.61
2023-05-14T14:34:27.021Z,37.58
2023-05-14T14:36:54.534Z,38.35
2023-05-14T14:39:24.544Z,38.60
2023-05-14T14:41:52.148Z,38.15
2023-05-14T14:44:19.608Z,37.38
2023-05-14T14:46:47.479Z,36.94
2023-05-14T14:49:15.002Z,37.10
2023-05-14T14:51:43.220Z,37.53
2023-05-14T14:54:10.723Z,38.15
2023-05-14T14:56:39.031Z,38.73
2023-05-14T14:59:06.560Z,38.89
2023-05-14T15:01:34.186Z,38.70
2023-05-14T15:04:01.735Z,38.68
2023-05-14T15:06:29.343Z,38.93
2023-05-14T15:08:57.210Z,39.10
2023-05-14T15:11:24.868Z,39.21
2023-05-14T15:13:52.391Z,39.03
2023-05-14T15:16:19.991Z,38.94
2023-05-14T15:18:47.579Z,38.43
2023-05-14T15:21:15.362Z,37.62
2023-05-14T15:23:42.913Z,36.63
2023-05-14T15:26:10.428Z,35.63
2023-05-14T15:28:38.345Z,34.74
2023-05-14T15:31:05.981Z,34.05
2023-05-14T15:33:34.002Z,33.28
2023-05-14T15:36:01.545Z,32.59
2023-05-14T15:38:29.194Z,31.89
2023-05-14T15:40:56.762Z,31.37
2023-05-14T15:43:24.372Z,30.84
2023-05-14T15:45:51.879Z,30.37
2023-05-14T15:48:19.442Z,29.96
2023-05-14T15:50:49.692Z,29.56
2023-05-14T15:53:17.895Z,29.47
2023-05-14T15:55:48.510Z,29.22
2023-05-14T15:58:16.018Z,28.92
2023-05-14T16:00:43.567Z,28.63
2023-05-14T16:03:12.257Z,29.15
2023-05-14T16:05:41.417Z,30.31
2023-05-14T16:08:09.075Z,31.60
2023-05-14T16:10:37.772Z,32.89
2023-05-14T16:13:05.375Z,34.08
2023-05-14T16:15:32.912Z,34.99
2023-05-14T16:18:00.667Z,35.87
2023-05-14T16:20:28.268Z,36.67
2023-05-14T16:22:55.797Z,37.14
2023-05-14T16:25:23.366Z,37.22
2023-05-14T16:27:50.871Z,36.95
2023-05-14T16:30:18.440Z,36.54
2023-05-14T16:32:49.504Z,36.27
2023-05-14T16:35:17.148Z,36.07
2023-05-14T16:37:44.797Z,35.95
2023-05-14T16:40:12.842Z,35.77
2023-05-14T16:42:40.370Z,35.52
2023-05-14T16:45:08.723Z,35.04
2023-05-14T16:47:36.374Z,34.39
2023-05-14T16:50:03.984Z,33.69
2023-05-14T16:52:31.709Z,33.18
2023-05-14T16:54:59.291Z,32.90
2023-05-14T16:57:26.783Z,32.71
2023-05-14T16:59:54.296Z,32.61
2023-05-14T17:02:21.817Z,32.51
2023-05-14T17:04:49.420Z,32.58
2023-05-14T17:07:17.411Z,32.63
2023-05-14T17:09:45.071Z,32.51
2023-05-14T17:12:13.615Z,32.14
2023-05-14T17:14:42.179Z,31.62
2023-05-14T17:17:09.637Z,30.97
2023-05-14T17:19:37.114Z,30.41
2023-05-14T17:22:06.481Z,29.85
2023-05-14T17:24:35.369Z,29.30
2023-05-14T17:27:02.910Z,28.75
2023-05-14T17:29:30.564Z,28.21
2023-05-14T17:31:58.251Z,27.68
2023-05-14T17:34:25.936Z,27.21
2023-05-14T17:36:53.537Z,26.79
2023-05-14T17:39:20.998Z,26.37
2023-05-14T17:41:48.553Z,25.98
2023-05-14T17:44:16.094Z,25.63
2023-05-14T17:46:45.132Z,25.31
2023-05-14T17:49:12.913Z,24.98
2023-05-14T17:51:40.640Z,24.68
2023-05-14T17:54:08.260Z,24.40
2023-05-14T17:56:35.906Z,24.13
2023-05-14T17:59:03.842Z,23.87
2023-05-14T18:01:31.553Z,23.64
2023-05-14T18:03:59.350Z,23.40
2023-05-14T18:06:27.162Z,23.17
2023-05-14T18:08:57.491Z,22.97
2023-05-14T18:11:25.993Z,22.76
2023-05-14T18:13:53.462Z,22.57
2023-05-14T18:16:21.070Z,22.39
2023-05-14T18:18:48.945Z,22.21
2023-05-14T18:21:17.925Z,22.02
2023-05-14T18:23:45.498Z,21.86
2023-05-14T18:26:12.999Z,21.70
2023-05-14T18:28:40.836Z,21.56
2023-05-14T18:31:08.456Z,21.41
2023-05-14T18:33:36.060Z,21.27
2023-05-14T18:36:03.951Z,21.14
2023-05-14T18:38:31.475Z,21.01
2023-05-14T18:41:01.673Z,20.87
2023-05-14T18:43:29.185Z,20.73
2023-05-14T18:45:56.819Z,20.59
2023-05-14T18:48:24.795Z,20.44
2023-05-14T18:50:52.312Z,20.29
2023-05-14T18:53:20.080Z,20.15
2023-05-14T18:55:47.643Z,20.02
2023-05-14T18:58:15.173Z,19.88
2023-05-14T19:00:42.819Z,19.76
2023-05-14T19:03:10.499Z,19.65
2023-05-14T19:05:39.826Z,19.54
2023-05-14T19:08:07.563Z,19.43
2023-05-14T19:10:35.030Z,19.33
2023-05-14T19:13:02.904Z,19.24
2023-05-14T19:15:30.522Z,19.14
2023-05-14T19:17:58.210Z,19.04
2023-05-14T19:20:26.232Z,18.94
2023-05-14T19:22:53.711Z,18.85
2023-05-14T19:25:21.213Z,18.76
2023-05-14T19:27:51.052Z,18.68
2023-05-14T19:30:19.928Z,18.58
2023-05-14T19:32:47.532Z,18.49
2023-05-14T19:35:15.611Z,18.42
2023-05-14T19:37:43.127Z,18.36
2023-05-14T19:40:11.067Z,18.29
2023-05-14T19:42:38.582Z,18.23
2023-05-14T19:45:06.575Z,18.16
2023-05-14T19:47:34.234Z,18.08
2023-05-14T19:50:01.903Z,18.02
2023-05-14T19:52:29.374Z,17.95
2023-05-14T19:54:56.847Z,17.88
2023-05-14T19:57:24.376Z,17.82
2023-05-14T19:59:51.916Z,17.75
2023-05-14T20:02:21.597Z,17.67
2023-05-14T20:04:49.517Z,17.61
2023-05-14T20:07:17.148Z,17.54
2023-05-14T20:09:44.730Z,17.49
2023-05-14T20:12:13.200Z,17.41
2023-05-14T20:14:41.282Z,17.34
2023-05-14T20:17:09.078Z,17.27
2023-05-14T20:19:36.714Z,17.21
2023-05-14T20:22:04.515Z,17.16
2023-05-14T20:24:31.982Z,17.12
2023-05-14T20:26:59.449Z,17.07
2023-05-14T20:29:26.980Z,17.03
2023-05-14T20:31:54.542Z,17.01
2023-05-14T20:34:22.155Z,16.98
2023-05-14T20:36:50.009Z,16.97
2023-05-14T20:39:18.325Z,16.95
2023-05-14T20:41:45.963Z,16.93
2023-05-14T20:44:13.520Z,16.91
2023-05-14T20:46:41.232Z,16.89
2023-05-14T20:49:08.708Z,16.87
2023-05-14T20:51:36.210Z,16.86
2023-05-14T20:54:04.075Z,16.84
2023-05-14T20:56:31.731Z,16.84
2023-05-14T20:58:59.238Z,16.82
2023-05-14T21:01:26.939Z,16.79
2023-05-14T21:03:54.868Z,16.74
2023-05-14T21:06:22.478Z,16.70
2023-05-14T21:08:53.008Z,16.67
2023-05-14T21:11:21.576Z,16.65
2023-05-14T21:13:49.121Z,16.64
2023-05-14T21:16:16.756Z,16.62
2023-05-14T21:18:44.711Z,16.59
2023-05-14T21:21:12.236Z,16.57
2023-05-14T21:23:40.087Z,16.55
2023-05-14T21:26:07.830Z,16.53
2023-05-14T21:28:35.461Z,16.51
2023-05-14T21:31:02.926Z,16.48
2023-05-14T21:33:30.437Z,16.46
2023-05-14T21:35:58.053Z,16.44
2023-05-14T21:38:25.742Z,16.40
2023-05-14T21:40:53.234Z,16.37
2023-05-14T21:43:20.934Z,16.35
2023-05-14T21:45:48.425Z,16.33
2023-05-14T21:48:16.068Z,16.31
2023-05-14T21:50:43.654Z,16.30
2023-05-14T21:53:11.217Z,16.28
2023-05-14T21:55:38.965Z,16.26
2023-05-14T21:58:07.501Z,16.25
2023-05-14T22:00:34.977Z,16.24
2023-05-14T22:03:02.635Z,16.24
2023-05-14T22:05:30.216Z,16.22
2023-05-14T22:07:57.729Z,16.21
2023-05-14T22:10:25.380Z,16.19
2023-05-14T22:12:52.846Z,16.17
2023-05-14T22:15:20.539Z,16.15
2023-05-14T22:17:48.216Z,16.13
2023-05-14T22:20:16.358Z,16.11
2023-05-14T22:22:43.853Z,16.08
2023-05-14T22:25:11.442Z,16.06
2023-05-14T22:27:39.053Z,16.04
2023-05-14T22:30:07.421Z,16.02
2023-05-14T22:32:35.014Z,16.01
2023-05-14T22:35:03.209Z,16.01
2023-05-14T22:37:30.798Z,16.00
2023-05-14T22:39:58.291Z,15.99
2023-05-14T22:42:26.720Z,15.97
2023-05-14T22:44:54.315Z,15.94
2023-05-14T22:47:21.954Z,15.92
2023-05-14T22:49:49.655Z,15.90
2023-05-14T22:52:18.838Z,15.88
2023-05-14T22:54:46.708Z,15.87
2023-05-14T22:57:14.286Z,15.86
2023-05-14T22:59:41.800Z,15.83
2023-05-14T23:02:09.489Z,15.82
2023-05-14T23:04:37.336Z,15.79
2023-05-14T23:07:04.877Z,15.77
2023-05-14T23:09:32.450Z,15.74
2023-05-14T23:12:00.444Z,15.72
2023-05-14T23:14:27.990Z,15.68
2023-05-14T23:16:55.517Z,15.65
2023-05-14T23:19:23.303Z,15.64
2023-05-14T23:21:51.017Z,15.63
2023-05-14T23:24:18.511Z,15.62
2023-05-14T23:26:45.958Z,15.61
2023-05-14T23:29:13.744Z,15.59
2023-05-14T23:31:42.431Z,15.59
2023-05-14T23:34:10.005Z,15.59
2023-05-14T23:36:37.581Z,15.59
2023-05-14T23:39:06.841Z,15.59
2023-05-14T23:41:34.401Z,15.60
2023-05-14T23:44:02.149Z,15.60
2023-05-14T23:46:30.205Z,15.59
2023-05-14T23:48:57.962Z,15.58
2023-05-14T23:51:27.864Z,15.58
2023-05-14T23:54:00.739Z,15.57
2023-05-14T23:56:31.738Z,15.58
2023-05-14T23:58:59.501Z,15.58
